Time;durP1;ratioP1;P1;durP2;ratioP2;P2;SDS_P1;SDS_P2;PMS_P1;PMS_P2;Temp;Humidity;BMP_temperature;BMP_pressure;BME280_temperature;BME280_humidity;BME280_pressure;Samples;Min_cycle;Max_cycle;Signal;HPM_P1;HPM_P2
2023/09/27 00:02:22;;;;;;;10.80;8.80;;;;;;;24.09;46.72;102261.95;107109;1257;25359;-57
2023/09/27 00:04:49;;;;;;;10.80;7.90;;;;;;;24.08;46.74;102256.52;107096;1254;25481;-57
2023/09/27 00:07:16;;;;;;;12.60;9.10;;;;;;;24.08;46.74;102255.84;107161;1254;25374;-57
2023/09/27 00:09:43;;;;;;;15.50;8.00;;;;;;;24.07;47.14;102255.54;107115;1254;25347;-57
2023/09/27 00:12:10;;;;;;;17.30;8.40;;;;;;;24.05;47.04;102253.86;107135;1254;25410;-57
2023/09/27 00:14:37;;;;;;;8.90;7.50;;;;;;;24.02;46.60;102250.82;107132;1254;25385;-57
2023/09/27 00:17:04;;;;;;;10.30;7.80;;;;;;;23.99;46.10;102252.73;107047;1259;25382;-56
2023/09/27 00:19:31;;;;;;;11.50;7.80;;;;;;;23.96;45.77;102250.98;107122;1257;22521;-57
2023/09/27 00:21:58;;;;;;;13.10;7.90;;;;;;;23.92;45.51;102251.89;107026;1262;22520;-58
2023/09/27 00:24:25;;;;;;;11.70;7.70;;;;;;;23.87;45.67;102253.23;107128;1257;25780;-57
2023/09/27 00:26:52;;;;;;;15.60;7.40;;;;;;;23.86;45.44;102251.14;107210;1257;25327;-57
2023/09/27 00:29:19;;;;;;;13.10;7.20;;;;;;;23.83;45.09;102249.71;107081;1257;25405;-58
2023/09/27 00:31:46;;;;;;;10.50;7.70;;;;;;;23.80;44.97;102247.60;107059;1254;24237;-58
2023/09/27 00:34:13;;;;;;;8.50;7.10;;;;;;;23.76;44.79;102245.48;107085;1260;25443;-58
2023/09/27 00:36:40;;;;;;;12.20;7.20;;;;;;;23.74;45.11;102243.50;107115;1254;25312;-57
2023/09/27 00:39:07;;;;;;;14.20;8.20;;;;;;;23.71;45.34;102242.05;107144;1257;25443;-58
2023/09/27 00:41:34;;;;;;;10.80;7.70;;;;;;;23.68;45.12;102239.35;107204;1254;25398;-57
2023/09/27 00:44:01;;;;;;;13.70;7.90;;;;;;;23.65;45.04;102241.11;107175;1254;25322;-58
2023/09/27 00:46:29;;;;;;;10.30;7.70;;;;;;;23.63;44.94;102243.38;106858;1267;25396;-57
2023/09/27 00:48:56;;;;;;;12.20;7.80;;;;;;;23.60;45.05;102238.75;107122;1256;25341;-57
2023/09/27 00:51:26;;;;;;;8.60;7.70;;;;;;;23.57;45.07;102242.08;107107;1254;25481;-57
2023/09/27 00:53:53;;;;;;;13.30;7.80;;;;;;;23.54;45.11;102237.29;107059;1251;25353;-57
2023/09/27 00:56:20;;;;;;;9.70;7.60;;;;;;;23.51;45.16;102240.27;106822;1259;25443;-58
2023/09/27 00:58:47;;;;;;;8.40;6.80;;;;;;;23.49;45.31;102238.62;107127;1263;25271;-57
2023/09/27 01:01:15;;;;;;;13.30;7.30;;;;;;;23.47;45.10;102236.80;107235;1254;25408;-57
2023/09/27 01:03:42;;;;;;;9.20;7.10;;;;;;;23.44;44.70;102237.64;106870;1269;25331;-57
2023/09/27 01:06:09;;;;;;;12.90;7.00;;;;;;;23.40;44.43;102242.26;106949;1269;25505;-57
2023/09/27 01:08:37;;;;;;;12.20;7.60;;;;;;;23.38;44.46;102237.24;106990;1266;25388;-58
2023/09/27 01:11:04;;;;;;;12.70;8.20;;;;;;;23.36;44.26;102237.34;107146;1254;24257;-57
2023/09/27 01:13:31;;;;;;;12.70;7.10;;;;;;;23.33;44.30;102235.52;107047;1267;25331;-57
2023/09/27 01:15:59;;;;;;;9.60;6.30;;;;;;;23.32;44.47;102235.79;107109;1263;25378;-58
2023/09/27 01:18:27;;;;;;;9.70;6.20;;;;;;;23.30;44.54;102237.09;107084;1254;25331;-58
2023/09/27 01:20:54;;;;;;;17.80;7.70;;;;;;;23.27;43.91;102238.29;106801;1262;25478;-59
2023/09/27 01:23:21;;;;;;;10.70;7.20;;;;;;;23.23;43.26;102235.85;106861;1258;25433;-57
2023/09/27 01:25:57;;;;;;;11.10;6.90;;;;;;;23.20;42.96;102236.38;107087;1254;25325;-57
2023/09/27 01:28:24;;;;;;;10.70;7.20;;;;;;;23.17;43.01;102238.15;107022;1257;25262;-56
2023/09/27 01:30:52;;;;;;;8.70;6.70;;;;;;;23.15;43.53;102239.31;107116;1263;25414;-57
2023/09/27 01:33:19;;;;;;;15.30;7.50;;;;;;;23.13;43.74;102237.10;107092;1254;25354;-57
2023/09/27 01:35:46;;;;;;;15.20;7.20;;;;;;;23.12;43.80;102236.10;107211;1263;25513;-57
2023/09/27 01:38:13;;;;;;;8.60;6.60;;;;;;;23.11;43.73;102235.99;107194;1254;25331;-58
2023/09/27 01:40:44;;;;;;;11.40;6.70;;;;;;;23.08;43.86;102239.63;107107;1263;25325;-57
2023/09/27 01:43:11;;;;;;;11.90;7.20;;;;;;;23.05;43.59;102236.77;107139;1254;23884;-57
2023/09/27 01:45:38;;;;;;;9.80;7.00;;;;;;;23.03;43.06;102237.27;107074;1260;25336;-59
2023/09/27 01:48:06;;;;;;;14.20;6.70;;;;;;;23.00;42.71;102235.66;107088;1255;22526;-57
2023/09/27 01:50:34;;;;;;;10.20;6.60;;;;;;;22.97;42.69;102235.10;107148;1267;24269;-57
2023/09/27 01:53:01;;;;;;;10.10;6.40;;;;;;;22.94;42.53;102233.98;107137;1254;22615;-57
2023/09/27 01:55:29;;;;;;;8.50;6.40;;;;;;;22.91;42.40;102236.44;107214;1254;25309;-58
2023/09/27 01:57:56;;;;;;;15.70;7.00;;;;;;;22.89;42.52;102237.26;107197;1251;25344;-57
2023/09/27 02:00:24;;;;;;;10.60;6.80;;;;;;;22.87;42.09;102238.23;107255;1254;22537;-58
2023/09/27 02:02:57;;;;;;;7.40;6.50;;;;;;;22.84;41.97;102240.02;106883;1267;25389;-57
2023/09/27 02:05:26;;;;;;;12.90;6.90;;;;;;;22.83;41.83;102242.19;107121;1263;22530;-56
2023/09/27 02:07:53;;;;;;;11.60;7.80;;;;;;;22.80;41.95;102238.58;107256;1251;25239;-57
2023/09/27 02:10:20;;;;;;;9.30;6.70;;;;;;;22.80;42.20;102239.98;106707;1274;25408;-57
2023/09/27 02:12:47;;;;;;;8.30;6.40;;;;;;;22.80;42.21;102239.47;107116;1265;24206;-57
2023/09/27 02:15:15;;;;;;;12.40;7.00;;;;;;;22.78;42.00;102236.91;107053;1254;25480;-56
2023/09/27 02:17:42;;;;;;;16.60;6.90;;;;;;;22.78;41.91;102242.61;107044;1269;25443;-56
2023/09/27 02:20:12;;;;;;;10.30;6.10;;;;;;;22.75;41.84;102244.34;107052;1263;25474;-58
2023/09/27 02:22:40;;;;;;;14.90;7.50;;;;;;;22.74;41.71;102247.21;106904;1257;25379;-58
2023/09/27 02:25:09;;;;;;;11.10;7.00;;;;;;;22.72;41.71;102244.49;106888;1267;25309;-58
2023/09/27 02:27:39;;;;;;;10.00;6.50;;;;;;;22.69;41.79;102246.40;106931;1263;26496;-57
2023/09/27 02:30:11;;;;;;;8.60;6.70;;;;;;;22.68;41.72;102247.50;107005;1256;25402;-58
2023/09/27 02:32:41;;;;;;;;;;;;;;;22.65;41.82;102249.03;106956;1256;25330;-60
2023/09/27 02:35:09;;;;;;;10.30;6.40;;;;;;;22.64;42.15;102248.22;107234;1263;22529;-58
2023/09/27 02:37:37;;;;;;;11.60;7.00;;;;;;;22.63;42.37;102246.50;107147;1254;24201;-57
2023/09/27 02:40:11;;;;;;;15.60;6.70;;;;;;;22.61;42.21;102244.30;107183;1263;25226;-57
2023/09/27 02:42:42;;;;;;;11.00;6.70;;;;;;;22.55;42.21;102244.38;107163;1257;25468;-58
2023/09/27 02:45:10;;;;;;;12.90;7.00;;;;;;;22.58;42.20;102244.80;107076;1254;24185;-57
2023/09/27 02:47:45;;;;;;;9.00;6.60;;;;;;;22.57;42.57;102243.73;107129;1254;25346;-57
2023/09/27 02:50:13;;;;;;;9.30;7.20;;;;;;;22.56;42.58;102242.19;107071;1260;25389;-57
2023/09/27 02:52:40;;;;;;;10.00;6.80;;;;;;;22.55;43.02;102242.77;107232;1253;24465;-57
2023/09/27 02:55:08;;;;;;;13.90;6.80;;;;;;;22.55;42.99;102247.57;106821;1260;25398;-58
2023/09/27 02:57:37;;;;;;;9.50;6.20;;;;;;;22.54;42.84;102244.59;107084;1257;25477;-57
2023/09/27 03:00:06;;;;;;;10.90;6.40;;;;;;;22.53;42.57;102246.42;107035;1264;25349;-57
2023/09/27 03:02:33;;;;;;;8.70;6.80;;;;;;;22.50;42.47;102246.56;107155;1257;22631;-58
2023/09/27 03:05:04;;;;;;;9.70;6.20;;;;;;;22.44;42.34;102245.93;107125;1254;24205;-57
2023/09/27 03:07:33;;;;;;;10.50;6.60;;;;;;;22.41;42.50;102246.13;106958;1266;25356;-58
2023/09/27 03:10:02;;;;;;;13.30;6.70;;;;;;;22.43;42.84;102248.14;106863;1259;25511;-56
2023/09/27 03:12:30;;;;;;;10.60;6.20;;;;;;;22.41;42.86;102248.22;107111;1263;25329;-58
2023/09/27 03:14:58;;;;;;;9.10;6.20;;;;;;;22.40;42.43;102249.17;107042;1263;25331;-58
2023/09/27 03:17:25;;;;;;;9.40;5.90;;;;;;;22.41;42.47;102245.06;107126;1258;25363;-58
2023/09/27 03:19:53;;;;;;;9.10;6.40;;;;;;;22.41;42.85;102250.00;107063;1256;25372;-58
2023/09/27 03:22:20;;;;;;;9.00;6.30;;;;;;;22.40;42.95;102250.73;107182;1250;25378;-59
2023/09/27 03:24:47;;;;;;;10.90;6.30;;;;;;;22.39;42.57;102250.99;107126;1257;25380;-57
2023/09/27 03:27:16;;;;;;;7.30;6.10;;;;;;;22.36;42.44;102248.98;107093;1254;25395;-58
2023/09/27 03:29:43;;;;;;;9.90;6.00;;;;;;;22.35;42.66;102249.94;106994;1256;24244;-57
2023/09/27 03:32:11;;;;;;;9.10;6.30;;;;;;;22.34;42.77;102251.05;107088;1254;25408;-58
2023/09/27 03:34:38;;;;;;;7.60;6.20;;;;;;;22.30;42.58;102251.61;107175;1263;25395;-58
2023/09/27 03:37:06;;;;;;;8.90;6.50;;;;;;;22.27;42.42;102252.24;107018;1256;25539;-57
2023/09/27 03:39:35;;;;;;;13.20;6.90;;;;;;;22.25;42.05;102250.05;107165;1263;25331;-57
2023/09/27 03:42:03;;;;;;;9.00;5.50;;;;;;;22.20;42.20;102251.69;107212;1256;25331;-57
2023/09/27 03:44:30;;;;;;;9.40;6.60;;;;;;;22.19;42.31;102251.39;106916;1259;25272;-57
2023/09/27 03:46:58;;;;;;;10.20;6.00;;;;;;;22.15;42.86;102253.55;106898;1253;25337;-57
2023/09/27 03:49:25;;;;;;;13.70;6.80;;;;;;;22.13;43.04;102254.89;107078;1251;25408;-58
2023/09/27 03:51:52;;;;;;;8.70;6.20;;;;;;;22.13;43.07;102257.35;107124;1254;25331;-58
2023/09/27 03:54:19;;;;;;;7.20;6.10;;;;;;;22.09;42.93;102260.51;107178;1257;25389;-59
2023/09/27 03:56:47;;;;;;;13.70;6.90;;;;;;;22.06;42.84;102262.08;107167;1251;25391;-57
2023/09/27 03:59:14;;;;;;;10.00;5.90;;;;;;;22.03;42.66;102259.20;107090;1259;25350;-58
2023/09/27 04:01:41;;;;;;;11.80;5.90;;;;;;;21.98;42.82;102261.55;106996;1257;25406;-58
2023/09/27 04:04:09;;;;;;;6.50;5.80;;;;;;;21.96;42.84;102263.41;107077;1255;25322;-57
2023/09/27 04:06:37;;;;;;;14.50;5.90;;;;;;;22.00;42.75;102262.17;107128;1254;22572;-57
2023/09/27 04:09:05;;;;;;;10.20;6.10;;;;;;;22.00;42.64;102264.48;107142;1254;25352;-57
2023/09/27 04:11:33;;;;;;;8.00;6.10;;;;;;;21.99;42.84;102264.87;107145;1254;25328;-58
2023/09/27 04:14:00;;;;;;;8.70;5.60;;;;;;;21.99;42.89;102262.73;107106;1254;25512;-57
2023/09/27 04:16:30;;;;;;;11.40;6.70;;;;;;;21.99;42.89;102262.58;106893;1260;24237;-58
2023/09/27 04:18:58;;;;;;;10.30;5.60;;;;;;;22.00;42.84;102262.52;107168;1254;25337;-58
2023/09/27 04:21:25;;;;;;;8.10;5.80;;;;;;;22.01;42.59;102264.59;107157;1254;22520;-59
2023/09/27 04:23:56;;;;;;;11.10;6.10;;;;;;;22.00;42.36;102262.39;107131;1254;25311;-59
2023/09/27 04:26:23;;;;;;;13.40;5.40;;;;;;;21.99;42.02;102261.54;107043;1263;24333;-58
2023/09/27 04:28:52;;;;;;;12.30;6.40;;;;;;;21.98;42.05;102263.00;107126;1254;25313;-58
2023/09/27 04:31:19;;;;;;;7.40;5.50;;;;;;;21.97;41.93;102262.14;106863;1258;22542;-59
2023/09/27 04:33:47;;;;;;;10.30;6.00;;;;;;;21.93;42.00;102264.27;107137;1254;25388;-58
2023/09/27 04:36:17;;;;;;;8.10;5.80;;;;;;;21.94;42.48;102267.77;107216;1254;25328;-57
2023/09/27 04:38:45;;;;;;;11.50;6.20;;;;;;;21.94;42.58;102267.06;106947;1260;25349;-57
2023/09/27 04:41:15;;;;;;;10.60;6.10;;;;;;;21.93;42.57;102273.30;106933;1266;22534;-57
2023/09/27 04:43:42;;;;;;;9.30;5.70;;;;;;;21.96;42.51;102272.61;106981;1266;22577;-59
2023/09/27 04:46:17;;;;;;;7.90;5.70;;;;;;;21.93;43.02;102272.74;107063;1257;25359;-58
2023/09/27 04:48:47;;;;;;;11.30;6.90;;;;;;;21.82;43.55;102275.36;107101;1254;22526;-59
2023/09/27 04:51:14;;;;;;;13.70;6.40;;;;;;;21.81;43.77;102273.64;107130;1253;25483;-58
2023/09/27 04:53:41;;;;;;;10.10;6.40;;;;;;;21.89;43.68;102271.36;107180;1254;22680;-58
2023/09/27 04:56:11;;;;;;;8.80;6.40;;;;;;;21.98;43.46;102271.99;106894;1260;25359;-59
2023/09/27 04:58:40;;;;;;;7.90;6.50;;;;;;;21.98;43.33;102275.35;107114;1254;24420;-58
2023/09/27 05:01:07;;;;;;;9.20;6.60;;;;;;;22.00;43.34;102274.39;107205;1266;25271;-58
2023/09/27 05:03:34;;;;;;;9.50;6.30;;;;;;;22.02;43.22;102271.11;107137;1261;25450;-58
2023/09/27 05:06:02;;;;;;;21.50;8.00;;;;;;;22.03;43.47;102271.77;107099;1257;25346;-58
2023/09/27 05:08:30;;;;;;;10.30;6.30;;;;;;;22.06;43.38;102276.03;107129;1257;23893;-58
2023/09/27 05:10:57;;;;;;;13.90;6.40;;;;;;;22.09;43.35;102270.45;107144;1267;25313;-58
2023/09/27 05:13:24;;;;;;;7.30;5.80;;;;;;;22.11;43.19;102269.27;107081;1257;25359;-57
2023/09/27 05:15:52;;;;;;;11.40;6.10;;;;;;;22.12;43.42;102269.08;107121;1256;25371;-58
2023/09/27 05:18:20;;;;;;;10.80;5.90;;;;;;;22.15;43.41;102269.46;106875;1269;25450;-58
2023/09/27 05:20:47;;;;;;;13.30;6.40;;;;;;;22.20;43.60;102269.23;106899;1259;22527;-58
2023/09/27 05:23:14;;;;;;;11.70;5.80;;;;;;;22.22;43.95;102270.00;107133;1264;25319;-58
2023/09/27 05:25:41;;;;;;;9.10;6.10;;;;;;;22.27;44.06;102269.94;107151;1257;25417;-58
2023/09/27 05:28:09;;;;;;;11.80;6.30;;;;;;;22.30;43.96;102272.80;107146;1257;25477;-58
2023/09/27 05:30:36;;;;;;;13.40;5.70;;;;;;;22.35;43.55;102272.41;106870;1260;25393;-58
2023/09/27 05:33:04;;;;;;;7.80;5.90;;;;;;;22.38;43.54;102274.22;107117;1257;25359;-58
2023/09/27 05:35:31;;;;;;;9.30;5.90;;;;;;;22.43;43.90;102274.30;107087;1255;25226;-58
2023/09/27 05:37:58;;;;;;;7.80;6.20;;;;;;;22.48;44.08;102275.64;106884;1258;22594;-58
2023/09/27 05:40:25;;;;;;;11.60;6.40;;;;;;;22.52;44.52;102280.74;107101;1259;25478;-57
2023/09/27 05:42:52;;;;;;;11.10;6.60;;;;;;;22.56;44.52;102282.69;107109;1263;25471;-58
2023/09/27 05:45:19;;;;;;;13.40;6.50;;;;;;;22.60;44.76;102280.79;107210;1258;25356;-58
2023/09/27 05:47:46;;;;;;;9.00;6.50;;;;;;;22.69;44.69;102287.97;106871;1269;25373;-58
2023/09/27 05:50:13;;;;;;;9.60;6.40;;;;;;;22.77;44.56;102289.50;107067;1267;25312;-58
2023/09/27 05:52:46;;;;;;;11.70;6.50;;;;;;;22.87;44.91;102294.84;107111;1257;24196;-57
2023/09/27 05:55:14;;;;;;;12.20;5.90;;;;;;;22.96;45.48;102297.96;106891;1268;25321;-58
2023/09/27 05:57:41;;;;;;;8.70;5.80;;;;;;;23.07;45.86;102299.88;107065;1257;25359;-58
2023/09/27 06:00:19;;;;;;;6.40;5.60;;;;;;;23.18;45.92;102301.13;107076;1256;25350;-58
2023/09/27 06:02:47;;;;;;;12.20;6.00;;;;;;;23.31;46.12;102300.45;106969;1267;25322;-58
2023/09/27 06:05:15;;;;;;;8.70;6.00;;;;;;;23.42;45.77;102298.83;107079;1263;22553;-57
2023/09/27 06:07:42;;;;;;;11.20;6.60;;;;;;;23.53;45.05;102298.27;106783;1260;25350;-59
2023/09/27 06:10:09;;;;;;;9.40;6.20;;;;;;;23.63;44.68;102301.64;107032;1255;25331;-58
2023/09/27 06:12:37;;;;;;;11.30;6.10;;;;;;;23.73;44.65;102299.70;107047;1257;25318;-59
2023/09/27 06:15:05;;;;;;;10.10;6.20;;;;;;;23.82;44.99;102301.38;106302;1266;1003005;-58
2023/09/27 06:17:32;;;;;;;11.20;6.60;;;;;;;23.92;45.24;102303.64;106954;1263;22527;-59
2023/09/27 06:20:05;;;;;;;10.10;6.40;;;;;;;24.04;45.23;102305.14;106350;1264;1003080;-58
2023/09/27 06:22:32;;;;;;;8.60;6.10;;;;;;;24.16;45.04;102302.52;107225;1257;25238;-58
2023/09/27 06:24:59;;;;;;;9.40;6.90;;;;;;;24.29;44.63;102309.70;106863;1260;25334;-58
2023/09/27 06:27:27;;;;;;;11.40;6.40;;;;;;;24.37;44.39;102307.12;107079;1266;24358;-58
2023/09/27 06:29:54;;;;;;;12.30;6.40;;;;;;;24.46;44.52;102313.33;106934;1266;25328;-58
2023/09/27 06:32:22;;;;;;;12.90;6.40;;;;;;;24.54;44.61;102310.78;107153;1257;22645;-58
2023/09/27 06:34:52;;;;;;;11.00;7.50;;;;;;;24.65;44.95;102313.51;107188;1257;25318;-58
2023/09/27 06:37:19;;;;;;;10.90;6.80;;;;;;;24.72;45.32;102313.13;106824;1257;410379;-58
2023/09/27 06:39:47;;;;;;;13.30;7.30;;;;;;;24.78;45.78;102307.45;107172;1268;25310;-58
2023/09/27 06:42:15;;;;;;;11.30;7.30;;;;;;;24.85;45.98;102304.77;107021;1263;25308;-57
2023/09/27 06:44:42;;;;;;;11.60;7.20;;;;;;;24.98;46.02;102304.55;106312;1263;1003460;-57
2023/09/27 06:47:09;;;;;;;21.90;7.50;;;;;;;25.08;46.22;102303.41;107065;1273;25337;-58
2023/09/27 06:49:36;;;;;;;11.60;6.90;;;;;;;25.22;45.97;102302.25;107134;1264;25475;-58
2023/09/27 06:52:05;;;;;;;12.30;7.40;;;;;;;25.36;45.82;102302.30;107058;1264;25334;-59
2023/09/27 06:54:33;;;;;;;10.70;6.80;;;;;;;25.54;45.15;102299.42;106892;1257;25711;-58
2023/09/27 06:57:00;;;;;;;11.10;7.10;;;;;;;25.72;44.52;102300.98;106930;1263;25319;-57
2023/09/27 06:59:26;;;;;;;9.00;7.10;;;;;;;25.84;44.13;102304.01;107101;1267;25405;-57
2023/09/27 07:01:54;;;;;;;12.00;7.60;;;;;;;25.92;43.96;102303.19;107156;1264;25328;-58
2023/09/27 07:04:21;;;;;;;11.70;7.00;;;;;;;25.97;44.00;102303.05;107090;1259;25405;-58
2023/09/27 07:06:48;;;;;;;11.80;7.50;;;;;;;26.01;44.32;102304.60;107190;1254;25378;-58
2023/09/27 07:09:16;;;;;;;11.90;7.00;;;;;;;26.04;44.56;102305.65;107107;1260;25340;-58
2023/09/27 07:11:44;;;;;;;9.60;7.10;;;;;;;26.08;44.64;102306.30;107165;1266;25388;-58
2023/09/27 07:14:17;;;;;;;11.90;7.10;;;;;;;26.14;44.28;102310.90;107160;1263;23522;-59
2023/09/27 07:16:46;;;;;;;12.50;7.30;;;;;;;26.17;43.59;102308.23;107123;1270;25347;-58
2023/09/27 07:19:31;;;;;;;8.20;7.00;;;;;;;26.16;43.57;102314.70;107161;1264;25356;-58
2023/09/27 07:21:59;;;;;;;10.00;7.30;;;;;;;26.16;43.76;102312.22;106870;1269;25343;-59
2023/09/27 07:24:29;;;;;;;10.60;6.70;;;;;;;26.13;43.87;102313.64;107190;1257;25364;-57
2023/09/27 07:26:57;;;;;;;10.00;7.60;;;;;;;26.15;43.84;102310.09;107144;1260;25474;-57
2023/09/27 07:29:24;;;;;;;9.40;6.90;;;;;;;26.15;44.00;102318.66;106868;1267;25350;-57
2023/09/27 07:31:51;;;;;;;10.50;8.00;;;;;;;26.14;43.92;102315.17;107146;1251;23851;-56
2023/09/27 07:34:18;;;;;;;11.70;8.50;;;;;;;26.14;44.01;102314.27;107090;1267;25461;-58
2023/09/27 07:36:45;;;;;;;11.60;7.70;;;;;;;26.12;44.43;102313.70;107105;1257;25346;-58
2023/09/27 07:39:13;;;;;;;11.00;8.10;;;;;;;26.14;44.38;102315.36;106859;1272;25453;-58
2023/09/27 07:41:41;;;;;;;13.30;7.40;;;;;;;26.18;44.37;102316.70;107150;1250;24193;-58
2023/09/27 07:44:09;;;;;;;11.00;7.20;;;;;;;26.17;44.27;102311.02;107283;1267;25309;-58
2023/09/27 07:46:37;;;;;;;9.40;7.70;;;;;;;26.19;43.89;102311.27;107202;1263;25474;-58
2023/09/27 07:49:04;;;;;;;9.40;7.30;;;;;;;26.24;43.74;102312.93;107385;1260;25356;-58
2023/09/27 07:51:31;;;;;;;16.60;7.30;;;;;;;26.29;43.67;102309.04;107286;1257;25405;-58
2023/09/27 07:53:58;;;;;;;11.70;6.80;;;;;;;26.32;43.82;102310.27;107126;1270;25368;-59
2023/09/27 07:56:30;;;;;;;10.20;7.00;;;;;;;26.36;43.84;102307.74;107051;1256;25364;-58
2023/09/27 07:58:58;;;;;;;8.50;6.90;;;;;;;26.40;43.82;102307.43;107277;1269;25337;-59
2023/09/27 08:01:25;;;;;;;12.70;6.90;;;;;;;26.47;43.79;102309.70;107060;1270;22646;-57
2023/09/27 08:04:00;;;;;;;11.60;6.20;;;;;;;26.55;43.33;102311.11;107495;1257;25318;-57
2023/09/27 08:06:29;;;;;;;10.70;6.00;;;;;;;26.60;43.12;102311.10;107161;1267;25562;-58
2023/09/27 08:08:57;;;;;;;14.50;7.20;;;;;;;26.64;43.03;102308.54;106801;1272;25308;-57
2023/09/27 08:11:24;;;;;;;10.90;6.10;;;;;;;26.72;42.90;102303.08;105592;1254;1003593;-57
2023/09/27 08:13:51;;;;;;;8.10;6.10;;;;;;;26.79;42.30;102303.14;106984;1266;25318;-57
2023/09/27 08:16:18;;;;;;;11.20;7.10;;;;;;;26.82;42.49;102302.05;107276;1263;25356;-58
2023/09/27 08:18:45;;;;;;;11.30;6.20;;;;;;;26.83;42.36;102303.76;107232;1261;25337;-57
2023/09/27 08:21:12;;;;;;;8.60;6.10;;;;;;;26.87;42.08;102302.96;107084;1270;25346;-59
2023/09/27 08:23:41;;;;;;;11.60;6.90;;;;;;;26.95;41.97;102301.90;107154;1266;25363;-60
2023/09/27 08:26:13;;;;;;;10.80;6.30;;;;;;;27.03;41.94;102302.78;107239;1257;25337;-58
2023/09/27 08:28:41;;;;;;;6.50;5.60;;;;;;;27.09;41.73;102300.77;107192;1270;25333;-57
2023/09/27 08:31:09;;;;;;;7.30;6.40;;;;;;;27.13;41.40;102299.99;107014;1267;25362;-57
2023/09/27 08:33:36;;;;;;;9.90;6.20;;;;;;;27.17;41.33;102298.65;107368;1257;24260;-58
2023/09/27 08:36:04;;;;;;;7.60;6.00;;;;;;;27.22;41.29;102291.71;107134;1267;25399;-57
2023/09/27 08:38:31;;;;;;;10.60;6.00;;;;;;;27.24;40.94;102293.89;106995;1264;22552;-60
2023/09/27 08:40:58;;;;;;;10.10;6.20;;;;;;;27.27;40.61;102294.77;107121;1260;25398;-58
2023/09/27 08:43:28;;;;;;;9.50;6.30;;;;;;;27.31;40.70;102291.98;107282;1256;22559;-57
2023/09/27 08:45:55;;;;;;;12.00;6.40;;;;;;;27.35;40.63;102293.30;107155;1266;25526;-58
2023/09/27 08:48:44;;;;;;;11.30;6.50;;;;;;;27.40;40.56;102290.16;107175;1264;25386;-58
2023/09/27 08:51:11;;;;;;;7.10;5.80;;;;;;;27.45;40.57;102291.98;106823;1259;25353;-58
2023/09/27 08:53:42;;;;;;;9.10;6.10;;;;;;;27.50;40.66;102291.79;106679;1263;24682;-58
2023/09/27 08:56:16;;;;;;;11.60;5.90;;;;;;;27.55;40.94;102290.40;106565;1276;25697;-57
2023/09/27 08:58:43;;;;;;;8.30;6.00;;;;;;;27.61;40.91;102291.40;106608;1264;25472;-57
2023/09/27 09:01:10;;;;;;;9.30;6.10;;;;;;;27.65;40.61;102289.66;106393;1280;25401;-57
2023/09/27 09:03:38;;;;;;;9.70;5.30;;;;;;;27.67;40.08;102291.67;106601;1265;25510;-57
2023/09/27 09:06:10;;;;;;;9.20;5.10;;;;;;;27.70;39.97;102290.20;106535;1277;25408;-58
2023/09/27 09:08:41;;;;;;;6.30;5.30;;;;;;;27.75;39.77;102287.90;106652;1274;25400;-58
2023/09/27 09:11:11;;;;;;;11.30;5.70;;;;;;;27.80;39.90;102287.73;106750;1271;22528;-57
2023/09/27 09:14:04;;;;;;;7.30;5.40;;;;;;;27.88;40.29;102287.19;106675;1280;22550;-58
2023/09/27 09:16:39;;;;;;;9.30;5.30;;;;;;;27.93;40.53;102288.77;106839;1273;24225;-57
2023/09/27 09:19:24;;;;;;;10.70;6.00;;;;;;;27.99;40.66;102286.77;106633;1273;25338;-58
2023/09/27 09:22:08;;;;;;;11.60;5.20;;;;;;;28.06;39.93;102288.02;106722;1273;23129;-60
2023/09/27 09:24:36;;;;;;;6.20;4.90;;;;;;;28.14;39.57;102287.27;106820;1273;22660;-57
2023/09/27 09:27:04;;;;;;;7.80;4.40;;;;;;;28.20;39.63;102289.38;106882;1271;22782;-59
2023/09/27 09:29:46;;;;;;;7.70;4.60;;;;;;;28.26;39.33;102284.50;107098;1270;23314;-58
2023/09/27 09:32:18;;;;;;;7.40;6.00;;;;;;;28.31;39.22;102286.27;106987;1257;23186;-57
2023/09/27 09:34:49;;;;;;;;;;;;;;;28.33;38.94;102290.20;106920;1258;25437;-57
2023/09/27 09:37:19;;;;;;;11.50;6.50;;;;;;;28.35;38.89;102286.67;106937;1257;25233;-56
2023/09/27 09:39:48;;;;;;;14.30;7.80;;;;;;;28.37;39.07;102284.74;106757;1276;25315;-56
2023/09/27 09:42:32;;;;;;;9.40;6.80;;;;;;;28.40;38.87;102285.17;107125;1258;25327;-57
2023/09/27 09:45:00;;;;;;;10.50;6.70;;;;;;;28.46;38.55;102286.77;107151;1260;22533;-57
2023/09/27 09:47:28;;;;;;;9.90;7.20;;;;;;;28.49;38.05;102285.06;107347;1260;22582;-57
2023/09/27 09:49:55;;;;;;;10.20;6.40;;;;;;;28.50;37.77;102282.48;107177;1270;25471;-59
2023/09/27 09:52:27;;;;;;;10.20;6.80;;;;;;;28.52;37.81;102279.70;107097;1260;25344;-57
2023/09/27 09:54:57;;;;;;;11.10;7.40;;;;;;;28.55;37.92;102279.11;107059;1260;25365;-57
2023/09/27 09:57:44;;;;;;;10.80;6.80;;;;;;;28.60;37.95;102275.17;106979;1267;24224;-57
2023/09/27 10:00:25;;;;;;;9.10;6.20;;;;;;;28.66;37.90;102274.75;106997;1256;23290;-58
2023/09/27 10:03:01;;;;;;;11.60;6.90;;;;;;;28.72;38.03;102272.17;107119;1270;25504;-58
2023/09/27 10:05:37;;;;;;;7.30;5.90;;;;;;;28.81;38.07;102266.84;107183;1270;25377;-57
2023/09/27 10:08:08;;;;;;;10.30;5.80;;;;;;;28.86;38.05;102267.52;107347;1261;24442;-56
2023/09/27 10:10:35;;;;;;;5.70;5.20;;;;;;;28.84;38.09;102263.54;107194;1260;22674;-58
2023/09/27 10:13:04;;;;;;;9.00;5.10;;;;;;;28.85;37.95;102261.70;107281;1254;25277;-58
2023/09/27 10:15:33;;;;;;;8.50;5.20;;;;;;;28.91;37.84;102258.20;106851;1264;25337;-56
2023/09/27 10:18:22;;;;;;;8.70;4.60;;;;;;;29.01;37.12;102248.91;107445;1251;25333;-58
2023/09/27 10:21:03;;;;;;;6.90;4.10;;;;;;;29.03;37.01;102254.81;107073;1254;25463;-57
2023/09/27 10:23:37;;;;;;;5.00;4.40;;;;;;;29.03;36.98;102251.98;107120;1254;25386;-56
2023/09/27 10:26:18;;;;;;;5.60;4.10;;;;;;;29.05;36.94;102252.19;107174;1254;25344;-57
2023/09/27 10:29:04;;;;;;;6.50;4.40;;;;;;;29.08;36.56;102251.40;107207;1267;22575;-57
2023/09/27 10:31:37;;;;;;;8.40;4.10;;;;;;;29.08;36.85;102247.45;107077;1260;25318;-57
2023/09/27 10:34:29;;;;;;;5.50;4.10;;;;;;;29.07;37.03;102249.38;107138;1267;22528;-57
2023/09/27 10:37:00;;;;;;;8.30;4.30;;;;;;;29.09;36.88;102253.64;106975;1275;22797;-56
2023/09/27 10:40:22;;;;;;;5.00;3.90;;;;;;;29.10;37.17;102249.82;107064;1274;22607;-58
2023/09/27 10:42:49;;;;;;;7.00;3.70;;;;;;;29.12;37.30;102248.39;107367;1260;25405;-58
2023/09/27 10:45:17;;;;;;;6.20;4.10;;;;;;;29.16;37.40;102249.96;107074;1251;24222;-57
2023/09/27 10:47:46;;;;;;;6.00;4.20;;;;;;;29.21;37.19;102248.46;107527;1260;25405;-57
2023/09/27 10:50:16;;;;;;;7.90;4.60;;;;;;;29.25;37.31;102248.72;107277;1266;25404;-56
2023/09/27 10:52:43;;;;;;;6.80;4.10;;;;;;;29.21;37.35;102245.45;107662;1251;25407;-57
2023/09/27 10:55:12;;;;;;;7.50;3.70;;;;;;;29.33;36.73;102242.88;107160;1266;25319;-56
2023/09/27 10:57:39;;;;;;;5.90;4.10;;;;;;;29.36;36.71;102240.98;107185;1254;22746;-57
2023/09/27 11:00:12;;;;;;;5.80;4.00;;;;;;;29.37;36.82;102236.63;107159;1250;22520;-57
2023/09/27 11:02:41;;;;;;;5.50;3.30;;;;;;;29.36;36.42;102237.24;106932;1259;22541;-58
2023/09/27 11:05:08;;;;;;;4.30;3.60;;;;;;;29.34;36.04;102236.73;107349;1266;25405;-57
2023/09/27 11:07:46;;;;;;;4.70;3.20;;;;;;;29.32;35.80;102234.20;107426;1258;25347;-57
2023/09/27 11:10:28;;;;;;;4.00;3.70;;;;;;;29.25;35.69;102233.71;107377;1251;25223;-58
2023/09/27 11:13:12;;;;;;;5.70;3.70;;;;;;;29.24;35.83;102231.27;107353;1266;25318;-57
2023/09/27 11:15:40;;;;;;;6.60;3.40;;;;;;;29.23;35.86;102226.31;107220;1257;22649;-57
2023/09/27 11:18:08;;;;;;;6.20;3.20;;;;;;;29.24;36.30;102227.54;107267;1255;25322;-57
2023/09/27 11:20:42;;;;;;;10.50;4.00;;;;;;;29.26;36.32;102227.31;107204;1250;25312;-57
2023/09/27 11:23:09;;;;;;;8.80;3.60;;;;;;;29.30;36.54;102224.70;107314;1257;25362;-57